createdAt,value
2022-12-17T00:01:43.388Z,101883.84
2022-12-17T00:04:29.053Z,101893.28
2022-12-17T00:07:15.389Z,101894.41
2022-12-17T00:10:00.708Z,101898.47
2022-12-17T00:12:46.133Z,101897.38
2022-12-17T00:15:31.366Z,101895.97
2022-12-17T00:18:22.440Z,101900.19
2022-12-17T00:21:12.088Z,101909.81
2022-12-17T00:23:57.274Z,101906.06
2022-12-17T00:26:43.104Z,101916.91
2022-12-17T00:29:28.762Z,101918.88
2022-12-17T00:32:16.131Z,101909.91
2022-12-17T00:35:02.910Z,101920.91
2022-12-17T00:37:48.510Z,101921.13
2022-12-17T00:40:33.851Z,101923.38
2022-12-17T00:43:19.736Z,101919.03
2022-12-17T00:46:07.411Z,101919.72
2022-12-17T00:48:52.532Z,101924.50
2022-12-17T00:51:39.617Z,101930.84
2022-12-17T00:54:24.869Z,101938.13
2022-12-17T00:57:06.931Z,101933.34
2022-12-17T00:59:53.219Z,101933.41
2022-12-17T01:02:42.154Z,101935.66
2022-12-17T01:05:28.033Z,101943.06
2022-12-17T01:08:14.666Z,101948.28
2022-12-17T01:11:00.617Z,101948.28
2022-12-17T01:13:46.468Z,101956.25
2022-12-17T01:16:33.878Z,101965.19
2022-12-17T01:19:20.271Z,101968.31
2022-12-17T01:22:17.035Z,101956.50
2022-12-17T01:25:04.148Z,101976.16
2022-12-17T01:27:49.639Z,101973.91
2022-12-17T01:30:35.294Z,101972.94
2022-12-17T01:33:22.152Z,101972.59
2022-12-17T01:36:08.542Z,101968.00
2022-12-17T01:38:53.998Z,101971.25
2022-12-17T01:41:40.581Z,101974.78
2022-12-17T01:45:03.951Z,101984.44
2022-12-17T01:47:53.783Z,101986.19
2022-12-17T01:50:43.726Z,101979.44
2022-12-17T01:53:30.562Z,101983.34
2022-12-17T01:56:17.381Z,101986.88
2022-12-17T01:59:04.793Z,101987.50
2022-12-17T02:01:49.348Z,101985.13
2022-12-17T02:04:35.553Z,101990.28
2022-12-17T02:07:45.017Z,101992.53
2022-12-17T02:10:42.530Z,101993.63
2022-12-17T02:13:34.614Z,101991.88
2022-12-17T02:16:27.831Z,102000.78
2022-12-17T02:19:18.161Z,101991.47
2022-12-17T02:22:08.364Z,101999.94
2022-12-17T02:25:02.609Z,101992.59
2022-12-17T02:27:50.859Z,101991.84
2022-12-17T02:30:37.825Z,101993.44
2022-12-17T02:33:23.532Z,101988.75
2022-12-17T02:36:13.769Z,101993.84
2022-12-17T02:38:58.978Z,101987.66
2022-12-17T02:41:48.653Z,101991.91
2022-12-17T02:44:40.119Z,101995.34
2022-12-17T02:47:28.664Z,102002.97
2022-12-17T02:50:14.996Z,101999.56
2022-12-17T02:53:07.867Z,102005.13
2022-12-17T02:55:54.611Z,102006.13
2022-12-17T02:58:39.979Z,102004.63
2022-12-17T03:01:27.146Z,102009.44
2022-12-17T03:04:13.195Z,102023.50
2022-12-17T03:07:03.123Z,102018.63
2022-12-17T03:09:48.381Z,102021.28
2022-12-17T03:12:33.670Z,102024.84
2022-12-17T03:15:19.117Z,102021.25
2022-12-17T03:18:05.922Z,102018.63
2022-12-17T03:20:51.566Z,102021.31
2022-12-17T03:23:36.906Z,102027.28
2022-12-17T03:26:23.182Z,102031.63
2022-12-17T03:29:08.511Z,102048.94
2022-12-17T03:31:53.975Z,102041.97
2022-12-17T03:34:40.681Z,102038.19
2022-12-17T03:37:26.314Z,102038.00
2022-12-17T03:40:11.590Z,102037.31
2022-12-17T03:42:56.717Z,102042.56
2022-12-17T03:45:42.157Z,102046.81
2022-12-17T03:48:30.431Z,102061.38
2022-12-17T03:51:17.803Z,102057.50
2022-12-17T03:54:03.698Z,102067.38
2022-12-17T03:56:49.533Z,102066.31
2022-12-17T03:59:35.204Z,102065.56
2022-12-17T04:02:21.069Z,102063.56
2022-12-17T04:05:06.605Z,102068.69
2022-12-17T04:07:53.483Z,102078.59
2022-12-17T04:10:38.734Z,102077.44
2022-12-17T04:13:24.181Z,102079.03
2022-12-17T04:16:24.058Z,102079.72
2022-12-17T04:19:17.798Z,102089.66
2022-12-17T04:22:03.038Z,102090.69
2022-12-17T04:24:49.582Z,102095.44
2022-12-17T04:27:34.771Z,102100.16
2022-12-17T04:30:19.912Z,102098.97
2022-12-17T04:33:05.193Z,102102.63
2022-12-17T04:35:46.945Z,102100.16
2022-12-17T04:38:32.399Z,102108.66
2022-12-17T04:41:18.869Z,102102.22
2022-12-17T04:44:04.189Z,102108.19
2022-12-17T04:46:49.659Z,102098.28
2022-12-17T04:49:34.931Z,102106.28
2022-12-17T04:52:20.177Z,102107.31
2022-12-17T04:55:05.400Z,102107.31
2022-12-17T04:57:52.199Z,102095.13
2022-12-17T05:00:37.985Z,102112.13
2022-12-17T05:03:24.799Z,102103.94
2022-12-17T05:06:10.042Z,102112.81
2022-12-17T05:08:55.237Z,102111.97
2022-12-17T05:11:41.393Z,102121.25
2022-12-17T05:14:28.217Z,102124.22
2022-12-17T05:17:13.927Z,102118.81
2022-12-17T05:19:59.035Z,102125.75
2022-12-17T05:22:44.326Z,102122.25
2022-12-17T05:25:29.557Z,102137.34
2022-12-17T05:28:15.074Z,102132.09
2022-12-17T05:31:02.289Z,102134.63
2022-12-17T05:33:47.633Z,102137.25
2022-12-17T05:36:32.997Z,102142.13
2022-12-17T05:39:18.427Z,102141.88
2022-12-17T05:42:03.817Z,102150.59
2022-12-17T05:44:48.985Z,102157.06
2022-12-17T05:47:47.176Z,102159.56
2022-12-17T05:50:32.487Z,102164.81
2022-12-17T05:53:20.360Z,102170.72
2022-12-17T05:56:13.561Z,102181.50
2022-12-17T05:58:58.999Z,102185.44
2022-12-17T06:01:44.375Z,102187.78
2022-12-17T06:04:30.970Z,102190.28
2022-12-17T06:07:16.199Z,102194.69
2022-12-17T06:10:01.346Z,102185.84
2022-12-17T06:12:46.471Z,102191.28
2022-12-17T06:15:31.537Z,102186.97
2022-12-17T06:18:17.429Z,102195.56
2022-12-17T06:21:04.723Z,102202.91
2022-12-17T06:23:50.308Z,102200.00
2022-12-17T06:26:35.545Z,102200.59
2022-12-17T06:29:20.981Z,102216.84
2022-12-17T06:32:06.158Z,102210.44
2022-12-17T06:34:51.675Z,102209.44
2022-12-17T06:37:38.423Z,102208.34
2022-12-17T06:40:39.439Z,102212.72
2022-12-17T06:43:24.829Z,102209.56
2022-12-17T06:46:10.710Z,102219.94
2022-12-17T06:48:56.091Z,102216.28
2022-12-17T06:51:41.406Z,102218.84
2022-12-17T06:54:28.185Z,102229.47
2022-12-17T06:57:13.408Z,102231.19
2022-12-17T06:59:58.908Z,102242.59
2022-12-17T07:02:49.620Z,102250.56
2022-12-17T07:05:35.396Z,102257.59
2022-12-17T07:08:20.690Z,102272.47
2022-12-17T07:11:06.477Z,102262.75
2022-12-17T07:13:51.843Z,102273.31
2022-12-17T07:16:37.380Z,102280.50
2022-12-17T07:19:26.998Z,102277.75
2022-12-17T07:22:13.035Z,102285.50
2022-12-17T07:24:58.368Z,102290.03
2022-12-17T07:27:45.418Z,102292.81
2022-12-17T07:30:31.283Z,102288.59
2022-12-17T07:33:17.946Z,102289.47
2022-12-17T07:36:11.545Z,102295.38
2022-12-17T07:38:56.619Z,102284.66
2022-12-17T07:41:41.667Z,102294.41
2022-12-17T07:44:28.678Z,102299.50
2022-12-17T07:47:14.641Z,102305.88
2022-12-17T07:49:59.787Z,102308.47
2022-12-17T07:52:45.071Z,102315.34
2022-12-17T07:55:30.513Z,102332.44
2022-12-17T07:58:20.056Z,102336.72
2022-12-17T08:01:07.228Z,102341.97
2022-12-17T08:03:52.437Z,102335.75
2022-12-17T08:06:58.408Z,102336.47
2022-12-17T08:09:46.187Z,102342.59
2022-12-17T08:12:31.626Z,102344.38
2022-12-17T08:15:16.895Z,102346.00
2022-12-17T08:18:03.427Z,102340.63
2022-12-17T08:20:50.202Z,102336.03
2022-12-17T08:23:35.914Z,102346.75
2022-12-17T08:26:21.516Z,102352.50
2022-12-17T08:29:06.938Z,102348.69
2022-12-17T08:31:48.652Z,102347.84
2022-12-17T08:34:35.384Z,102346.41
2022-12-17T08:37:20.918Z,102362.03
2022-12-17T08:40:06.398Z,102360.09
2022-12-17T08:42:51.573Z,102359.63
2022-12-17T08:45:36.953Z,102360.16
2022-12-17T08:48:23.194Z,102363.94
2022-12-17T08:51:10.216Z,102360.09
2022-12-17T08:53:55.501Z,102361.88
2022-12-17T08:56:40.909Z,102366.28
2022-12-17T08:59:26.866Z,102377.69
2022-12-17T09:02:12.556Z,102382.81
2022-12-17T09:05:00.130Z,102379.97
2022-12-17T09:07:46.935Z,102383.06
2022-12-17T09:10:32.448Z,102387.22
2022-12-17T09:13:20.673Z,102391.72
2022-12-17T09:16:10.317Z,102393.47
2022-12-17T09:18:56.198Z,102407.28
2022-12-17T09:21:41.949Z,102407.84
2022-12-17T09:24:29.546Z,102404.28
2022-12-17T09:27:15.308Z,102387.88
2022-12-17T09:30:00.915Z,102388.91
2022-12-17T09:32:46.672Z,102387.72
2022-12-17T09:35:28.489Z,102385.66
2022-12-17T09:38:15.176Z,102393.59
2022-12-17T09:41:09.758Z,102397.84
2022-12-17T09:44:06.482Z,102404.00
2022-12-17T09:46:58.392Z,102394.00
2022-12-17T09:49:46.827Z,102395.88
2022-12-17T09:52:38.527Z,102403.75
2022-12-17T09:55:34.461Z,102391.25
2022-12-17T09:58:33.745Z,102402.63
2022-12-17T10:01:19.601Z,102398.75
2022-12-17T10:04:06.192Z,102411.63
2022-12-17T10:06:53.717Z,102415.97
2022-12-17T10:09:39.563Z,102416.91
2022-12-17T10:12:32.741Z,102429.94
2022-12-17T10:15:19.482Z,102426.19
2022-12-17T10:18:05.276Z,102428.31
2022-12-17T10:20:55.204Z,102429.03
2022-12-17T10:23:44.767Z,102440.44
2022-12-17T10:26:35.499Z,102448.69
2022-12-17T10:29:22.875Z,102439.25
2022-12-17T10:32:14.937Z,102428.66
2022-12-17T10:35:05.718Z,102428.28
2022-12-17T10:37:54.054Z,102427.06
2022-12-17T10:40:44.593Z,102433.63
2022-12-17T10:43:45.197Z,102436.91
2022-12-17T10:46:31.034Z,102443.16
2022-12-17T10:49:28.715Z,102445.75
2022-12-17T10:52:18.864Z,102445.75
2022-12-17T10:55:15.547Z,102438.13
2022-12-17T10:58:02.265Z,102454.94
2022-12-17T11:00:50.777Z,102451.19
2022-12-17T11:03:48.683Z,102451.84
2022-12-17T11:06:42.819Z,102452.81
2022-12-17T11:09:43.324Z,102455.59
2022-12-17T11:12:31.306Z,102461.63
2022-12-17T11:15:22.852Z,102458.31
2022-12-17T11:18:11.759Z,102465.69
2022-12-17T11:21:06.149Z,102455.13
2022-12-17T11:23:56.118Z,102458.63
2022-12-17T11:26:45.743Z,102456.72
2022-12-17T11:29:32.499Z,102463.84
2022-12-17T11:32:39.943Z,102481.69
2022-12-17T11:35:35.726Z,102478.88
2022-12-17T11:38:31.539Z,102493.16
2022-12-17T11:41:40.101Z,102491.28
2022-12-17T11:44:37.365Z,102489.66
2022-12-17T11:47:33.256Z,102483.25
2022-12-17T11:50:31.591Z,102487.06
2022-12-17T11:53:28.231Z,102498.59
2022-12-17T11:56:21.171Z,102495.09
2022-12-17T11:59:11.321Z,102493.09
2022-12-17T12:02:03.153Z,102489.69
2022-12-17T12:04:58.785Z,102497.59
2022-12-17T12:07:55.697Z,102487.06
2022-12-17T12:10:46.850Z,102487.13
2022-12-17T12:13:43.309Z,102493.31
2022-12-17T12:16:38.065Z,102503.84
2022-12-17T12:19:37.411Z,102497.47
2022-12-17T12:22:30.897Z,102496.72
2022-12-17T12:25:24.648Z,102493.19
2022-12-17T12:28:20.972Z,102498.53
2022-12-17T12:31:14.350Z,102504.56
2022-12-17T12:34:08.079Z,102516.03
2022-12-17T12:36:56.259Z,102523.25
2022-12-17T12:39:49.537Z,102533.97
2022-12-17T12:42:41.401Z,102526.19
2022-12-17T12:45:55.732Z,102529.56
2022-12-17T12:48:56.700Z,102536.66
2022-12-17T12:51:44.836Z,102540.91
2022-12-17T12:54:46.032Z,102540.97
2022-12-17T12:57:48.060Z,102534.97
2022-12-17T13:00:42.523Z,102547.94
2022-12-17T13:03:40.043Z,102542.84
2022-12-17T13:06:09.706Z,102552.38
2022-12-17T13:08:38.302Z,102556.00
2022-12-17T13:11:30.318Z,102553.25
2022-12-17T13:14:02.509Z,102545.22
2022-12-17T13:16:50.052Z,102552.31
2022-12-17T13:19:22.667Z,102555.91
2022-12-17T13:21:51.930Z,102550.63
2022-12-17T13:24:26.496Z,102555.03
2022-12-17T13:26:54.735Z,102545.69
2022-12-17T13:29:28.228Z,102558.91
2022-12-17T13:32:04.745Z,102554.56
2022-12-17T13:34:43.668Z,102556.25
2022-12-17T13:37:21.823Z,102558.72
2022-12-17T13:39:57.159Z,102568.31
2022-12-17T13:42:29.807Z,102568.28
2022-12-17T13:44:58.874Z,102575.63
2022-12-17T13:47:28.816Z,102574.78
2022-12-17T13:50:32.328Z,102580.97
2022-12-17T13:52:48.600Z,102591.47
2022-12-17T13:55:21.122Z,102584.53
2022-12-17T13:57:50.238Z,102584.44
2022-12-17T14:00:24.047Z,102588.59
2022-12-17T14:02:52.448Z,102595.56
2022-12-17T14:05:27.326Z,102591.22
2022-12-17T14:07:59.733Z,102596.41
2022-12-17T14:10:27.820Z,102596.28
2022-12-17T14:13:05.655Z,102598.97
2022-12-17T14:15:34.063Z,102610.56
2022-12-17T14:18:03.211Z,102612.25
2022-12-17T14:20:33.997Z,102617.59
2022-12-17T14:23:06.152Z,102617.63
2022-12-17T14:25:37.927Z,102609.59
2022-12-17T14:28:07.845Z,102611.44
2022-12-17T14:30:46.111Z,102607.16
2022-12-17T14:33:29.205Z,102612.22
2022-12-17T14:35:58.456Z,102614.06
2022-12-17T14:38:38.266Z,102619.47
2022-12-17T14:41:25.750Z,102619.28
2022-12-17T14:43:58.523Z,102612.38
2022-12-17T14:46:26.752Z,102628.59
2022-12-17T14:49:03.573Z,102622.91
2022-12-17T14:51:34.498Z,102626.38
2022-12-17T14:54:20.386Z,102638.59
2022-12-17T14:56:49.996Z,102649.22
2022-12-17T14:59:32.740Z,102643.06
2022-12-17T15:02:03.997Z,102647.75
2022-12-17T15:04:33.688Z,102645.78
2022-12-17T15:07:01.607Z,102637.03
2022-12-17T15:09:30.987Z,102643.19
2022-12-17T15:11:58.940Z,102646.88
2022-12-17T15:14:26.879Z,102652.09
2022-12-17T15:16:55.943Z,102645.81
2022-12-17T15:19:24.185Z,102651.19
2022-12-17T15:21:52.199Z,102660.09
2022-12-17T15:24:22.040Z,102665.47
2022-12-17T15:26:51.400Z,102667.22
2022-12-17T15:29:19.399Z,102669.78
2022-12-17T15:31:47.489Z,102675.84
2022-12-17T15:34:15.421Z,102675.97
2022-12-17T15:36:43.302Z,102682.19
2022-12-17T15:39:12.193Z,102687.34
2022-12-17T15:41:57.773Z,102691.69
2022-12-17T15:44:27.975Z,102697.03
2022-12-17T15:46:55.998Z,102690.69
2022-12-17T15:49:24.059Z,102693.47
2022-12-17T15:51:52.059Z,102696.03
2022-12-17T15:54:20.127Z,102700.59
2022-12-17T15:56:54.545Z,102695.28
2022-12-17T15:59:22.877Z,102698.84
2022-12-17T16:01:52.275Z,102703.97
2022-12-17T16:04:24.843Z,102703.00
2022-12-17T16:06:53.188Z,102700.47
2022-12-17T16:09:24.500Z,102706.50
2022-12-17T16:11:54.903Z,102694.19
2022-12-17T16:14:23.211Z,102696.91
2022-12-17T16:16:53.043Z,102702.38
2022-12-17T16:19:20.978Z,102699.88
2022-12-17T16:21:49.080Z,102701.53
2022-12-17T16:24:17.078Z,102703.34
2022-12-17T16:26:45.072Z,102705.91
2022-12-17T16:29:12.945Z,102711.19
2022-12-17T16:31:40.842Z,102715.50
2022-12-17T16:34:10.802Z,102713.84
2022-12-17T16:36:38.838Z,102712.94
2022-12-17T16:39:07.169Z,102719.13
2022-12-17T16:41:35.659Z,102716.44
2022-12-17T16:44:04.340Z,102720.78
2022-12-17T16:46:34.256Z,102720.00
2022-12-17T16:49:06.505Z,102726.91
2022-12-17T16:51:35.784Z,102728.66
2022-12-17T16:54:06.338Z,102737.53
2022-12-17T16:56:39.682Z,102732.22
2022-12-17T16:59:09.574Z,102730.47
2022-12-17T17:01:39.316Z,102730.47
2022-12-17T17:04:09.405Z,102731.41
2022-12-17T17:06:41.972Z,102721.59
2022-12-17T17:09:10.310Z,102732.16
2022-12-17T17:11:39.037Z,102737.44
2022-12-17T17:14:08.244Z,102731.25
2022-12-17T17:16:36.485Z,102736.53
2022-12-17T17:19:05.694Z,102733.84
2022-12-17T17:21:35.667Z,102735.69
2022-12-17T17:24:08.091Z,102746.22
2022-12-17T17:26:36.109Z,102747.03
2022-12-17T17:29:05.081Z,102743.53
2022-12-17T17:32:08.673Z,102747.94
2022-12-17T17:34:21.203Z,102744.41
2022-12-17T17:36:49.400Z,102755.91
2022-12-17T17:39:18.606Z,102758.59
2022-12-17T17:41:46.517Z,102771.78
2022-12-17T17:44:15.426Z,102768.22
2022-12-17T17:46:43.974Z,102771.69
2022-12-17T17:49:12.613Z,102769.03
2022-12-17T17:54:32.586Z,102770.81
2022-12-17T17:57:00.545Z,102774.38
2022-12-17T17:59:33.355Z,102765.56
2022-12-17T18:02:02.491Z,102772.59
2022-12-17T18:04:30.979Z,102776.97
2022-12-17T18:09:48.194Z,102771.69
2022-12-17T18:12:33.751Z,102782.22
2022-12-17T18:15:18.375Z,102773.38
2022-12-17T18:17:48.329Z,102783.97
2022-12-17T18:20:16.367Z,102786.56
2022-12-17T18:22:46.097Z,102790.09
2022-12-17T18:25:16.561Z,102791.91
2022-12-17T18:27:44.525Z,102786.63
2022-12-17T18:30:13.435Z,102782.22
2022-12-17T18:32:42.344Z,102796.34
2022-12-17T18:35:10.659Z,102791.09
2022-12-17T18:37:39.029Z,102802.47
2022-12-17T18:40:08.272Z,102795.44
2022-12-17T18:42:55.064Z,102800.72
2022-12-17T18:45:23.206Z,102813.88
2022-12-17T18:47:51.995Z,102813.00
2022-12-17T18:50:20.096Z,102809.50
2022-12-17T18:52:47.957Z,102818.25
2022-12-17T18:55:16.343Z,102813.88
2022-12-17T18:57:45.607Z,102816.50
2022-12-17T19:00:14.894Z,102828.78
2022-12-17T19:02:42.906Z,102822.59
2022-12-17T19:05:10.956Z,102821.75
2022-12-17T19:07:38.777Z,102836.66
2022-12-17T19:10:07.701Z,102836.66
2022-12-17T19:12:35.853Z,102846.28
2022-12-17T19:15:05.758Z,102847.19
2022-12-17T19:17:34.507Z,102848.06
2022-12-17T19:20:02.477Z,102853.31
2022-12-17T19:22:30.446Z,102848.91
2022-12-17T19:24:58.325Z,102845.38
2022-12-17T19:27:26.327Z,102855.03
2022-12-17T19:29:56.432Z,102861.13
2022-12-17T19:32:25.812Z,102865.50
2022-12-17T19:34:53.822Z,102867.34
2022-12-17T19:37:21.669Z,102858.56
2022-12-17T19:39:49.524Z,102869.97
2022-12-17T19:42:25.459Z,102870.84
2022-12-17T19:44:54.028Z,102869.06
2022-12-17T19:47:22.958Z,102877.81
2022-12-17T19:49:52.501Z,102874.31
2022-12-17T19:52:20.351Z,102891.84
2022-12-17T19:54:49.970Z,102889.13
2022-12-17T19:57:17.898Z,102899.59
2022-12-17T19:59:45.943Z,102881.25
2022-12-17T20:02:15.670Z,102882.16
2022-12-17T20:04:43.786Z,102882.97
2022-12-17T20:07:12.977Z,102877.72
2022-12-17T20:09:44.099Z,102882.97
2022-12-17T20:12:12.517Z,102889.16
2022-12-17T20:14:40.459Z,102901.47
2022-12-17T20:17:08.512Z,102904.84
2022-12-17T20:19:36.609Z,102906.63
2022-12-17T20:22:06.944Z,102907.56
2022-12-17T20:24:37.352Z,102898.81
2022-12-17T20:27:05.850Z,102905.69
2022-12-17T20:29:33.820Z,102906.59
2022-12-17T20:32:03.158Z,102912.53
2022-12-17T20:34:31.093Z,102914.41
2022-12-17T20:36:58.993Z,102914.38
2022-12-17T20:39:28.215Z,102910.06
2022-12-17T20:41:58.146Z,102909.13
2022-12-17T20:44:26.241Z,102917.84
2022-12-17T20:46:54.207Z,102920.63
2022-12-17T20:49:24.850Z,102932.81
2022-12-17T20:51:52.794Z,102926.56
2022-12-17T20:54:21.616Z,102930.13
2022-12-17T20:56:49.943Z,102921.44
2022-12-17T20:59:20.785Z,102924.69
2022-12-17T21:01:55.594Z,102932.47
2022-12-17T21:04:24.351Z,102936.25
2022-12-17T21:06:52.969Z,102930.88
2022-12-17T21:09:22.567Z,102925.72
2022-12-17T21:11:50.847Z,102923.03
2022-12-17T21:14:20.874Z,102937.38
2022-12-17T21:16:49.383Z,102939.13
2022-12-17T21:19:20.127Z,102936.78
2022-12-17T21:21:48.379Z,102939.50
2022-12-17T21:24:16.227Z,102936.09
2022-12-17T21:26:45.324Z,102934.53
2022-12-17T21:29:14.415Z,102938.91
2022-12-17T21:31:46.558Z,102937.00
2022-12-17T21:34:17.321Z,102951.13
2022-12-17T21:36:46.956Z,102947.66
2022-12-17T21:39:16.774Z,102946.72
2022-12-17T21:42:06.906Z,102944.13
2022-12-17T21:44:35.158Z,102951.00
2022-12-17T21:47:04.631Z,102952.69
2022-12-17T21:49:32.581Z,102966.59
2022-12-17T21:52:01.918Z,102961.41
2022-12-17T21:54:29.991Z,102958.03
2022-12-17T21:56:57.897Z,102966.03
2022-12-17T21:59:25.767Z,102968.44
2022-12-17T22:01:57.323Z,102961.59
2022-12-17T22:04:27.423Z,102965.09
2022-12-17T22:06:59.111Z,102963.31
2022-12-17T22:09:49.238Z,102973.81
2022-12-17T22:12:40.542Z,102972.16
2022-12-17T22:15:11.046Z,102979.81
2022-12-17T22:17:41.413Z,102980.63
2022-12-17T22:20:11.873Z,102971.88
2022-12-17T22:22:39.741Z,102977.94
2022-12-17T22:25:10.842Z,102996.88
2022-12-17T22:27:40.059Z,102992.59
2022-12-17T22:30:30.355Z,102990.16
2022-12-17T22:33:02.232Z,102994.34
2022-12-17T22:37:45.424Z,102992.66
2022-12-17T22:41:06.282Z,102996.09
2022-12-17T22:44:36.378Z,102999.72
2022-12-17T22:44:42.605Z,102999.78
2022-12-17T22:47:09.664Z,103007.69
2022-12-17T22:49:39.205Z,103014.59
2022-12-17T22:52:08.626Z,103013.69
2022-12-17T22:54:36.741Z,103019.69
2022-12-17T22:57:35.813Z,103035.16
2022-12-17T22:59:52.954Z,103030.97
2022-12-17T23:02:20.870Z,103023.25
2022-12-17T23:04:48.930Z,103045.00
2022-12-17T23:07:18.162Z,103042.34
2022-12-17T23:09:46.058Z,103039.91
2022-12-17T23:12:36.800Z,103038.22
2022-12-17T23:15:07.746Z,103038.09
2022-12-17T23:17:35.647Z,103030.19
2022-12-17T23:20:03.594Z,103036.22
2022-12-17T23:22:34.377Z,103042.50
2022-12-17T23:25:02.318Z,103044.66
2022-12-17T23:27:30.382Z,103043.97
2022-12-17T23:29:58.845Z,103043.19
2022-12-17T23:32:27.330Z,103041.19
2022-12-17T23:34:55.220Z,103044.91
2022-12-17T23:37:23.117Z,103046.44
2022-12-17T23:39:52.372Z,103035.13
2022-12-17T23:42:20.236Z,103034.31
2022-12-17T23:44:48.092Z,103037.97
2022-12-17T23:47:16.029Z,103032.69
2022-12-17T23:49:43.947Z,103039.94
2022-12-17T23:52:11.876Z,103049.63
2022-12-17T23:54:39.701Z,103054.03
2022-12-17T23:57:09.218Z,103064.84
2022-12-17T23:59:37.093Z,103060.84
